sensor_id;sensor_type;location;lat;lon;timestamp;pressure;altitude;pressure_sealevel;temperature
19948;BMP180;10135;50.702;7.276;2022-07-23T00:00:06;99645.00;;;23.40
19948;BMP180;10135;50.702;7.276;2022-07-23T00:02:06;99656.00;;;23.40
19948;BMP180;10135;50.702;7.276;2022-07-23T00:04:07;99652.00;;;23.40
19948;BMP180;10135;50.702;7.276;2022-07-23T00:06:08;99651.00;;;23.40
19948;BMP180;10135;50.702;7.276;2022-07-23T00:08:08;99661.00;;;23.40
19948;BMP180;10135;50.702;7.276;2022-07-23T00:10:10;99654.00;;;23.40
19948;BMP180;10135;50.702;7.276;2022-07-23T00:12:10;99662.00;;;23.40
19948;BMP180;10135;50.702;7.276;2022-07-23T00:14:11;99657.00;;;23.40
19948;BMP180;10135;50.702;7.276;2022-07-23T00:16:12;99654.00;;;23.40
19948;BMP180;10135;50.702;7.276;2022-07-23T00:18:12;99651.00;;;23.40
19948;BMP180;10135;50.702;7.276;2022-07-23T00:20:14;99646.00;;;23.40
19948;BMP180;10135;50.702;7.276;2022-07-23T00:22:14;99646.00;;;23.40
19948;BMP180;10135;50.702;7.276;2022-07-23T00:24:15;99640.00;;;23.40
19948;BMP180;10135;50.702;7.276;2022-07-23T00:26:16;99636.00;;;23.40
19948;BMP180;10135;50.702;7.276;2022-07-23T00:28:17;99636.00;;;23.40
19948;BMP180;10135;50.702;7.276;2022-07-23T00:30:18;99647.00;;;23.40
19948;BMP180;10135;50.702;7.276;2022-07-23T00:32:19;99648.00;;;23.40
19948;BMP180;10135;50.702;7.276;2022-07-23T00:34:20;99643.00;;;23.40
19948;BMP180;10135;50.702;7.276;2022-07-23T00:36:20;99644.00;;;23.40
19948;BMP180;10135;50.702;7.276;2022-07-23T00:38:21;99636.00;;;23.40
19948;BMP180;10135;50.702;7.276;2022-07-23T00:40:22;99628.00;;;23.40
19948;BMP180;10135;50.702;7.276;2022-07-23T00:42:23;99628.00;;;23.40
19948;BMP180;10135;50.702;7.276;2022-07-23T00:44:26;99617.00;;;23.40
19948;BMP180;10135;50.702;7.276;2022-07-23T00:46:27;99620.00;;;23.30
19948;BMP180;10135;50.702;7.276;2022-07-23T00:48:28;99630.00;;;23.30
19948;BMP180;10135;50.702;7.276;2022-07-23T00:50:29;99639.00;;;23.30
19948;BMP180;10135;50.702;7.276;2022-07-23T00:52:31;99646.00;;;23.30
19948;BMP180;10135;50.702;7.276;2022-07-23T00:54:32;99644.00;;;23.30
19948;BMP180;10135;50.702;7.276;2022-07-23T00:56:34;99635.00;;;23.30
19948;BMP180;10135;50.702;7.276;2022-07-23T00:58:36;99639.00;;;23.30
19948;BMP180;10135;50.702;7.276;2022-07-23T01:00:37;99638.00;;;23.30
19948;BMP180;10135;50.702;7.276;2022-07-23T01:02:39;99627.00;;;23.30
19948;BMP180;10135;50.702;7.276;2022-07-23T01:04:40;99625.00;;;23.30
19948;BMP180;10135;50.702;7.276;2022-07-23T01:06:43;99626.00;;;23.20
19948;BMP180;10135;50.702;7.276;2022-07-23T01:08:49;99640.00;;;23.20
19948;BMP180;10135;50.702;7.276;2022-07-23T01:10:55;99642.00;;;23.20
19948;BMP180;10135;50.702;7.276;2022-07-23T01:13:07;99635.00;;;23.20
19948;BMP180;10135;50.702;7.276;2022-07-23T01:15:08;99633.00;;;23.20
19948;BMP180;10135;50.702;7.276;2022-07-23T01:17:09;99631.00;;;23.20
19948;BMP180;10135;50.702;7.276;2022-07-23T01:19:15;99632.00;;;23.20
19948;BMP180;10135;50.702;7.276;2022-07-23T01:21:18;99621.00;;;23.20
19948;BMP180;10135;50.702;7.276;2022-07-23T01:23:19;99623.00;;;23.20
19948;BMP180;10135;50.702;7.276;2022-07-23T01:25:22;99618.00;;;23.20
19948;BMP180;10135;50.702;7.276;2022-07-23T01:27:23;99623.00;;;23.10
19948;BMP180;10135;50.702;7.276;2022-07-23T01:29:24;99620.00;;;23.10
19948;BMP180;10135;50.702;7.276;2022-07-23T01:31:26;99623.00;;;23.10
19948;BMP180;10135;50.702;7.276;2022-07-23T01:33:32;99622.00;;;23.10
19948;BMP180;10135;50.702;7.276;2022-07-23T01:35:39;99620.00;;;23.10
19948;BMP180;10135;50.702;7.276;2022-07-23T01:37:40;99618.00;;;23.10
19948;BMP180;10135;50.702;7.276;2022-07-23T01:39:40;99618.00;;;23.10
19948;BMP180;10135;50.702;7.276;2022-07-23T01:41:41;99614.00;;;23.10
19948;BMP180;10135;50.702;7.276;2022-07-23T01:43:42;99610.00;;;23.10
19948;BMP180;10135;50.702;7.276;2022-07-23T01:45:45;99614.00;;;23.00
19948;BMP180;10135;50.702;7.276;2022-07-23T01:47:47;99616.00;;;23.00
19948;BMP180;10135;50.702;7.276;2022-07-23T01:49:47;99610.00;;;23.00
19948;BMP180;10135;50.702;7.276;2022-07-23T01:51:51;99602.00;;;23.00
19948;BMP180;10135;50.702;7.276;2022-07-23T01:54:01;99603.00;;;23.00
19948;BMP180;10135;50.702;7.276;2022-07-23T01:56:02;99602.00;;;23.00
19948;BMP180;10135;50.702;7.276;2022-07-23T01:58:03;99608.00;;;23.00
19948;BMP180;10135;50.702;7.276;2022-07-23T02:00:05;99610.00;;;23.00
19948;BMP180;10135;50.702;7.276;2022-07-23T02:02:06;99607.00;;;23.00
19948;BMP180;10135;50.702;7.276;2022-07-23T02:04:09;99617.00;;;23.00
19948;BMP180;10135;50.702;7.276;2022-07-23T02:06:10;99614.00;;;23.00
19948;BMP180;10135;50.702;7.276;2022-07-23T02:08:10;99609.00;;;23.00
19948;BMP180;10135;50.702;7.276;2022-07-23T02:10:11;99611.00;;;23.00
19948;BMP180;10135;50.702;7.276;2022-07-23T02:12:12;99604.00;;;23.00
19948;BMP180;10135;50.702;7.276;2022-07-23T02:14:12;99610.00;;;23.00
19948;BMP180;10135;50.702;7.276;2022-07-23T02:16:13;99612.00;;;23.00
19948;BMP180;10135;50.702;7.276;2022-07-23T02:18:14;99614.00;;;23.00
19948;BMP180;10135;50.702;7.276;2022-07-23T02:20:15;99614.00;;;23.00
19948;BMP180;10135;50.702;7.276;2022-07-23T02:22:16;99610.00;;;23.00
19948;BMP180;10135;50.702;7.276;2022-07-23T02:24:17;99613.00;;;23.00
19948;BMP180;10135;50.702;7.276;2022-07-23T02:26:20;99608.00;;;23.00
19948;BMP180;10135;50.702;7.276;2022-07-23T02:28:21;99603.00;;;23.00
19948;BMP180;10135;50.702;7.276;2022-07-23T02:30:22;99605.00;;;22.90
19948;BMP180;10135;50.702;7.276;2022-07-23T02:32:22;99594.00;;;22.90
19948;BMP180;10135;50.702;7.276;2022-07-23T02:34:23;99584.00;;;22.90
19948;BMP180;10135;50.702;7.276;2022-07-23T02:36:24;99591.00;;;22.90
19948;BMP180;10135;50.702;7.276;2022-07-23T02:38:25;99592.00;;;22.90
19948;BMP180;10135;50.702;7.276;2022-07-23T02:40:26;99593.00;;;22.90
19948;BMP180;10135;50.702;7.276;2022-07-23T02:42:27;99590.00;;;22.90
19948;BMP180;10135;50.702;7.276;2022-07-23T02:44:28;99592.00;;;22.80
19948;BMP180;10135;50.702;7.276;2022-07-23T02:46:28;99589.00;;;22.80
19948;BMP180;10135;50.702;7.276;2022-07-23T02:48:29;99585.00;;;22.80
19948;BMP180;10135;50.702;7.276;2022-07-23T02:50:30;99590.00;;;22.80
19948;BMP180;10135;50.702;7.276;2022-07-23T02:52:31;99597.00;;;22.80
19948;BMP180;10135;50.702;7.276;2022-07-23T02:54:34;99596.00;;;22.80
19948;BMP180;10135;50.702;7.276;2022-07-23T02:56:35;99598.00;;;22.80
19948;BMP180;10135;50.702;7.276;2022-07-23T02:58:36;99595.00;;;22.70
19948;BMP180;10135;50.702;7.276;2022-07-23T03:00:36;99594.00;;;22.70
19948;BMP180;10135;50.702;7.276;2022-07-23T03:26:19;99595.00;;;22.90
19948;BMP180;10135;50.702;7.276;2022-07-23T03:28:20;99595.00;;;22.80
19948;BMP180;10135;50.702;7.276;2022-07-23T03:30:22;99590.00;;;22.80
19948;BMP180;10135;50.702;7.276;2022-07-23T03:32:23;99591.00;;;22.70
19948;BMP180;10135;50.702;7.276;2022-07-23T03:34:24;99601.00;;;22.70
19948;BMP180;10135;50.702;7.276;2022-07-23T03:36:25;99591.00;;;22.70
19948;BMP180;10135;50.702;7.276;2022-07-23T03:38:26;99597.00;;;22.70
19948;BMP180;10135;50.702;7.276;2022-07-23T03:40:26;99608.00;;;22.70
19948;BMP180;10135;50.702;7.276;2022-07-23T03:42:27;99606.00;;;22.70
19948;BMP180;10135;50.702;7.276;2022-07-23T03:44:28;99601.00;;;22.70
19948;BMP180;10135;50.702;7.276;2022-07-23T03:46:29;99609.00;;;22.60
19948;BMP180;10135;50.702;7.276;2022-07-23T03:48:29;99601.00;;;22.60
19948;BMP180;10135;50.702;7.276;2022-07-23T03:50:30;99605.00;;;22.60
19948;BMP180;10135;50.702;7.276;2022-07-23T03:52:30;99609.00;;;22.60
19948;BMP180;10135;50.702;7.276;2022-07-23T03:54:31;99614.00;;;22.60
19948;BMP180;10135;50.702;7.276;2022-07-23T03:56:32;99612.00;;;22.60
19948;BMP180;10135;50.702;7.276;2022-07-23T03:58:32;99612.00;;;22.60
19948;BMP180;10135;50.702;7.276;2022-07-23T04:00:33;99610.00;;;22.60
19948;BMP180;10135;50.702;7.276;2022-07-23T04:02:34;99615.00;;;22.50
19948;BMP180;10135;50.702;7.276;2022-07-23T04:04:34;99612.00;;;22.50
19948;BMP180;10135;50.702;7.276;2022-07-23T04:06:35;99621.00;;;22.50
19948;BMP180;10135;50.702;7.276;2022-07-23T04:08:36;99626.00;;;22.50
19948;BMP180;10135;50.702;7.276;2022-07-23T04:10:36;99636.00;;;22.50
19948;BMP180;10135;50.702;7.276;2022-07-23T04:12:37;99632.00;;;22.50
19948;BMP180;10135;50.702;7.276;2022-07-23T04:14:38;99629.00;;;22.50
19948;BMP180;10135;50.702;7.276;2022-07-23T04:16:38;99634.00;;;22.50
19948;BMP180;10135;50.702;7.276;2022-07-23T04:18:40;99639.00;;;22.50
19948;BMP180;10135;50.702;7.276;2022-07-23T04:20:41;99640.00;;;22.50
19948;BMP180;10135;50.702;7.276;2022-07-23T04:22:41;99640.00;;;22.50
19948;BMP180;10135;50.702;7.276;2022-07-23T04:24:42;99640.00;;;22.50
19948;BMP180;10135;50.702;7.276;2022-07-23T04:26:44;99637.00;;;22.50
19948;BMP180;10135;50.702;7.276;2022-07-23T04:28:45;99638.00;;;22.50
19948;BMP180;10135;50.702;7.276;2022-07-23T04:30:45;99639.00;;;22.50
19948;BMP180;10135;50.702;7.276;2022-07-23T04:32:46;99642.00;;;22.50
19948;BMP180;10135;50.702;7.276;2022-07-23T04:34:47;99647.00;;;22.50
19948;BMP180;10135;50.702;7.276;2022-07-23T04:36:48;99644.00;;;22.50
19948;BMP180;10135;50.702;7.276;2022-07-23T04:38:48;99655.00;;;22.60
19948;BMP180;10135;50.702;7.276;2022-07-23T04:40:49;99654.00;;;22.60
19948;BMP180;10135;50.702;7.276;2022-07-23T04:42:49;99654.00;;;22.70
19948;BMP180;10135;50.702;7.276;2022-07-23T04:44:50;99651.00;;;22.80
19948;BMP180;10135;50.702;7.276;2022-07-23T04:46:51;99654.00;;;22.80
19948;BMP180;10135;50.702;7.276;2022-07-23T04:48:51;99664.00;;;22.90
19948;BMP180;10135;50.702;7.276;2022-07-23T04:50:53;99660.00;;;22.90
19948;BMP180;10135;50.702;7.276;2022-07-23T04:52:53;99665.00;;;22.90
19948;BMP180;10135;50.702;7.276;2022-07-23T04:54:54;99657.00;;;22.90
19948;BMP180;10135;50.702;7.276;2022-07-23T04:56:55;99660.00;;;22.90
19948;BMP180;10135;50.702;7.276;2022-07-23T04:58:55;99660.00;;;22.90
19948;BMP180;10135;50.702;7.276;2022-07-23T05:00:56;99663.00;;;22.90
19948;BMP180;10135;50.702;7.276;2022-07-23T05:02:58;99661.00;;;22.90
19948;BMP180;10135;50.702;7.276;2022-07-23T05:04:58;99661.00;;;22.80
19948;BMP180;10135;50.702;7.276;2022-07-23T05:06:59;99667.00;;;22.90
19948;BMP180;10135;50.702;7.276;2022-07-23T05:09:00;99668.00;;;22.80
19948;BMP180;10135;50.702;7.276;2022-07-23T05:11:00;99666.00;;;22.80
19948;BMP180;10135;50.702;7.276;2022-07-23T05:13:01;99667.00;;;22.80
19948;BMP180;10135;50.702;7.276;2022-07-23T05:15:02;99665.00;;;22.80
19948;BMP180;10135;50.702;7.276;2022-07-23T05:17:03;99659.00;;;22.80
19948;BMP180;10135;50.702;7.276;2022-07-23T05:19:03;99667.00;;;22.80
19948;BMP180;10135;50.702;7.276;2022-07-23T05:21:04;99669.00;;;22.80
19948;BMP180;10135;50.702;7.276;2022-07-23T05:23:05;99669.00;;;22.80
19948;BMP180;10135;50.702;7.276;2022-07-23T05:25:06;99666.00;;;22.80
19948;BMP180;10135;50.702;7.276;2022-07-23T05:27:07;99672.00;;;22.80
19948;BMP180;10135;50.702;7.276;2022-07-23T05:29:08;99669.00;;;22.80
19948;BMP180;10135;50.702;7.276;2022-07-23T05:31:08;99676.00;;;22.80
19948;BMP180;10135;50.702;7.276;2022-07-23T05:33:09;99670.00;;;22.80
19948;BMP180;10135;50.702;7.276;2022-07-23T05:35:10;99678.00;;;22.80
19948;BMP180;10135;50.702;7.276;2022-07-23T05:37:11;99680.00;;;22.80
19948;BMP180;10135;50.702;7.276;2022-07-23T05:39:12;99682.00;;;22.80
19948;BMP180;10135;50.702;7.276;2022-07-23T05:41:12;99685.00;;;22.80
19948;BMP180;10135;50.702;7.276;2022-07-23T05:43:13;99688.00;;;22.80
19948;BMP180;10135;50.702;7.276;2022-07-23T05:45:14;99684.00;;;22.80
19948;BMP180;10135;50.702;7.276;2022-07-23T05:47:14;99684.00;;;22.80
19948;BMP180;10135;50.702;7.276;2022-07-23T05:49:15;99690.00;;;22.80
19948;BMP180;10135;50.702;7.276;2022-07-23T05:51:21;99689.00;;;22.80
19948;BMP180;10135;50.702;7.276;2022-07-23T05:53:22;99697.00;;;22.80
19948;BMP180;10135;50.702;7.276;2022-07-23T05:55:22;99698.00;;;22.80
19948;BMP180;10135;50.702;7.276;2022-07-23T05:57:23;99691.00;;;22.70
19948;BMP180;10135;50.702;7.276;2022-07-23T05:59:24;99704.00;;;22.70
19948;BMP180;10135;50.702;7.276;2022-07-23T06:01:24;99701.00;;;22.70
19948;BMP180;10135;50.702;7.276;2022-07-23T06:03:25;99702.00;;;22.70
19948;BMP180;10135;50.702;7.276;2022-07-23T06:05:26;99702.00;;;22.70
19948;BMP180;10135;50.702;7.276;2022-07-23T06:07:26;99702.00;;;22.70
19948;BMP180;10135;50.702;7.276;2022-07-23T06:09:27;99701.00;;;22.60
19948;BMP180;10135;50.702;7.276;2022-07-23T06:11:28;99703.00;;;22.60
19948;BMP180;10135;50.702;7.276;2022-07-23T06:13:28;99704.00;;;22.60
19948;BMP180;10135;50.702;7.276;2022-07-23T06:15:29;99703.00;;;22.60
19948;BMP180;10135;50.702;7.276;2022-07-23T06:17:31;99700.00;;;22.60
19948;BMP180;10135;50.702;7.276;2022-07-23T06:19:31;99700.00;;;22.60
19948;BMP180;10135;50.702;7.276;2022-07-23T06:21:32;99701.00;;;22.60
19948;BMP180;10135;50.702;7.276;2022-07-23T06:23:32;99710.00;;;22.60
19948;BMP180;10135;50.702;7.276;2022-07-23T06:25:33;99703.00;;;22.60
19948;BMP180;10135;50.702;7.276;2022-07-23T06:27:34;99710.00;;;22.60
19948;BMP180;10135;50.702;7.276;2022-07-23T06:29:35;99714.00;;;22.60
19948;BMP180;10135;50.702;7.276;2022-07-23T06:31:35;99717.00;;;22.60
19948;BMP180;10135;50.702;7.276;2022-07-23T06:33:36;99714.00;;;22.70
19948;BMP180;10135;50.702;7.276;2022-07-23T06:35:37;99715.00;;;22.70
19948;BMP180;10135;50.702;7.276;2022-07-23T06:37:37;99710.00;;;22.70
19948;BMP180;10135;50.702;7.276;2022-07-23T06:39:38;99706.00;;;22.70
19948;BMP180;10135;50.702;7.276;2022-07-23T06:41:38;99708.00;;;22.70
19948;BMP180;10135;50.702;7.276;2022-07-23T06:43:39;99712.00;;;22.80
19948;BMP180;10135;50.702;7.276;2022-07-23T06:45:40;99717.00;;;22.80
19948;BMP180;10135;50.702;7.276;2022-07-23T06:47:40;99726.00;;;22.90
19948;BMP180;10135;50.702;7.276;2022-07-23T06:49:42;99727.00;;;22.90
19948;BMP180;10135;50.702;7.276;2022-07-23T06:51:42;99728.00;;;22.90
19948;BMP180;10135;50.702;7.276;2022-07-23T06:53:43;99735.00;;;22.90
19948;BMP180;10135;50.702;7.276;2022-07-23T06:55:44;99735.00;;;23.00
19948;BMP180;10135;50.702;7.276;2022-07-23T06:57:44;99740.00;;;23.00
19948;BMP180;10135;50.702;7.276;2022-07-23T06:59:45;99743.00;;;23.00
19948;BMP180;10135;50.702;7.276;2022-07-23T07:01:46;99747.00;;;23.10
19948;BMP180;10135;50.702;7.276;2022-07-23T07:03:46;99752.00;;;23.10
19948;BMP180;10135;50.702;7.276;2022-07-23T07:05:47;99746.00;;;23.20
19948;BMP180;10135;50.702;7.276;2022-07-23T07:07:48;99748.00;;;23.20
19948;BMP180;10135;50.702;7.276;2022-07-23T07:09:49;99749.00;;;23.20
19948;BMP180;10135;50.702;7.276;2022-07-23T07:11:49;99740.00;;;23.20
19948;BMP180;10135;50.702;7.276;2022-07-23T07:13:51;99749.00;;;23.20
19948;BMP180;10135;50.702;7.276;2022-07-23T07:15:51;99742.00;;;23.30
19948;BMP180;10135;50.702;7.276;2022-07-23T07:17:52;99749.00;;;23.30
19948;BMP180;10135;50.702;7.276;2022-07-23T07:19:53;99746.00;;;23.30
19948;BMP180;10135;50.702;7.276;2022-07-23T07:21:53;99751.00;;;23.30
19948;BMP180;10135;50.702;7.276;2022-07-23T07:23:54;99750.00;;;23.30
19948;BMP180;10135;50.702;7.276;2022-07-23T07:25:55;99757.00;;;23.30
19948;BMP180;10135;50.702;7.276;2022-07-23T07:27:55;99749.00;;;23.30
19948;BMP180;10135;50.702;7.276;2022-07-23T07:29:56;99748.00;;;23.40
19948;BMP180;10135;50.702;7.276;2022-07-23T07:31:57;99749.00;;;23.40
19948;BMP180;10135;50.702;7.276;2022-07-23T07:33:58;99750.00;;;23.40
19948;BMP180;10135;50.702;7.276;2022-07-23T07:35:59;99752.00;;;23.40
19948;BMP180;10135;50.702;7.276;2022-07-23T07:38:00;99751.00;;;23.40
19948;BMP180;10135;50.702;7.276;2022-07-23T07:40:02;99748.00;;;23.40
19948;BMP180;10135;50.702;7.276;2022-07-23T07:42:03;99753.00;;;23.50
19948;BMP180;10135;50.702;7.276;2022-07-23T07:44:04;99755.00;;;23.50
19948;BMP180;10135;50.702;7.276;2022-07-23T07:46:05;99750.00;;;23.50
19948;BMP180;10135;50.702;7.276;2022-07-23T07:48:10;99761.00;;;23.50
19948;BMP180;10135;50.702;7.276;2022-07-23T07:50:11;99764.00;;;23.50
19948;BMP180;10135;50.702;7.276;2022-07-23T07:52:11;99765.00;;;23.50
19948;BMP180;10135;50.702;7.276;2022-07-23T07:54:12;99768.00;;;23.60
19948;BMP180;10135;50.702;7.276;2022-07-23T07:56:13;99765.00;;;23.60
19948;BMP180;10135;50.702;7.276;2022-07-23T07:58:14;99778.00;;;23.60
19948;BMP180;10135;50.702;7.276;2022-07-23T08:00:15;99775.00;;;23.60
19948;BMP180;10135;50.702;7.276;2022-07-23T08:02:16;99777.00;;;23.70
19948;BMP180;10135;50.702;7.276;2022-07-23T08:04:17;99770.00;;;23.70
19948;BMP180;10135;50.702;7.276;2022-07-23T08:06:17;99772.00;;;23.80
19948;BMP180;10135;50.702;7.276;2022-07-23T08:08:18;99783.00;;;24.00
19948;BMP180;10135;50.702;7.276;2022-07-23T08:10:19;99775.00;;;24.20
19948;BMP180;10135;50.702;7.276;2022-07-23T08:12:20;99783.00;;;24.50
19948;BMP180;10135;50.702;7.276;2022-07-23T08:14:21;99778.00;;;24.90
19948;BMP180;10135;50.702;7.276;2022-07-23T08:16:22;99779.00;;;25.10
19948;BMP180;10135;50.702;7.276;2022-07-23T08:18:22;99778.00;;;25.10
19948;BMP180;10135;50.702;7.276;2022-07-23T08:20:25;99778.00;;;25.20
19948;BMP180;10135;50.702;7.276;2022-07-23T08:22:43;99783.00;;;25.10
19948;BMP180;10135;50.702;7.276;2022-07-23T08:24:43;99785.00;;;25.10
19948;BMP180;10135;50.702;7.276;2022-07-23T08:26:44;99788.00;;;25.10
19948;BMP180;10135;50.702;7.276;2022-07-23T08:28:44;99790.00;;;25.00
19948;BMP180;10135;50.702;7.276;2022-07-23T08:30:46;99788.00;;;25.00
19948;BMP180;10135;50.702;7.276;2022-07-23T08:33:03;99788.00;;;24.90
19948;BMP180;10135;50.702;7.276;2022-07-23T08:35:04;99788.00;;;24.90
19948;BMP180;10135;50.702;7.276;2022-07-23T08:37:05;99789.00;;;24.80
19948;BMP180;10135;50.702;7.276;2022-07-23T08:39:05;99792.00;;;24.80
19948;BMP180;10135;50.702;7.276;2022-07-23T08:41:07;99794.00;;;24.80
19948;BMP180;10135;50.702;7.276;2022-07-23T08:43:15;99798.00;;;24.70
19948;BMP180;10135;50.702;7.276;2022-07-23T08:45:19;99797.00;;;24.70
19948;BMP180;10135;50.702;7.276;2022-07-23T08:47:21;99797.00;;;24.70
19948;BMP180;10135;50.702;7.276;2022-07-23T08:49:22;99804.00;;;24.70
19948;BMP180;10135;50.702;7.276;2022-07-23T08:51:26;99806.00;;;24.70
19948;BMP180;10135;50.702;7.276;2022-07-23T08:53:30;99805.00;;;24.70
19948;BMP180;10135;50.702;7.276;2022-07-23T08:55:32;99804.00;;;24.70
19948;BMP180;10135;50.702;7.276;2022-07-23T08:57:33;99811.00;;;24.60
19948;BMP180;10135;50.702;7.276;2022-07-23T08:59:33;99810.00;;;24.60
19948;BMP180;10135;50.702;7.276;2022-07-23T09:01:34;99801.00;;;24.60
19948;BMP180;10135;50.702;7.276;2022-07-23T09:03:37;99808.00;;;24.60
19948;BMP180;10135;50.702;7.276;2022-07-23T09:05:39;99819.00;;;24.60
19948;BMP180;10135;50.702;7.276;2022-07-23T09:08:16;99819.00;;;24.60
19948;BMP180;10135;50.702;7.276;2022-07-23T09:10:17;99824.00;;;24.60
19948;BMP180;10135;50.702;7.276;2022-07-23T09:12:17;99811.00;;;24.60
19948;BMP180;10135;50.702;7.276;2022-07-23T09:14:41;99807.00;;;24.60
19948;BMP180;10135;50.702;7.276;2022-07-23T09:16:42;99812.00;;;24.60
19948;BMP180;10135;50.702;7.276;2022-07-23T09:19:01;99811.00;;;24.60
19948;BMP180;10135;50.702;7.276;2022-07-23T09:21:16;99810.00;;;24.60
19948;BMP180;10135;50.702;7.276;2022-07-23T09:23:17;99809.00;;;24.70
19948;BMP180;10135;50.702;7.276;2022-07-23T09:25:19;99812.00;;;24.70
19948;BMP180;10135;50.702;7.276;2022-07-23T09:27:19;99821.00;;;24.70
19948;BMP180;10135;50.702;7.276;2022-07-23T09:29:23;99823.00;;;24.70
19948;BMP180;10135;50.702;7.276;2022-07-23T09:33:45;99827.00;;;24.80
19948;BMP180;10135;50.702;7.276;2022-07-23T09:35:52;99813.00;;;24.80
19948;BMP180;10135;50.702;7.276;2022-07-23T09:38:02;99821.00;;;24.80
19948;BMP180;10135;50.702;7.276;2022-07-23T09:40:09;99819.00;;;24.80
19948;BMP180;10135;50.702;7.276;2022-07-23T09:44:20;99822.00;;;24.90
19948;BMP180;10135;50.702;7.276;2022-07-23T09:46:28;99826.00;;;24.90
19948;BMP180;10135;50.702;7.276;2022-07-23T09:48:28;99825.00;;;25.00
19948;BMP180;10135;50.702;7.276;2022-07-23T09:50:29;99822.00;;;25.00
19948;BMP180;10135;50.702;7.276;2022-07-23T09:52:35;99817.00;;;25.00
19948;BMP180;10135;50.702;7.276;2022-07-23T09:54:39;99825.00;;;25.00
19948;BMP180;10135;50.702;7.276;2022-07-23T09:56:42;99822.00;;;25.10
19948;BMP180;10135;50.702;7.276;2022-07-23T09:58:44;99822.00;;;25.10
19948;BMP180;10135;50.702;7.276;2022-07-23T10:00:49;99820.00;;;25.10
19948;BMP180;10135;50.702;7.276;2022-07-23T10:02:51;99823.00;;;25.20
19948;BMP180;10135;50.702;7.276;2022-07-23T10:04:54;99820.00;;;25.20
19948;BMP180;10135;50.702;7.276;2022-07-23T10:07:02;99813.00;;;25.20
19948;BMP180;10135;50.702;7.276;2022-07-23T10:09:03;99830.00;;;25.20
19948;BMP180;10135;50.702;7.276;2022-07-23T10:11:04;99822.00;;;25.30
19948;BMP180;10135;50.702;7.276;2022-07-23T10:13:05;99823.00;;;25.30
19948;BMP180;10135;50.702;7.276;2022-07-23T10:15:06;99808.00;;;25.30
19948;BMP180;10135;50.702;7.276;2022-07-23T10:17:08;99809.00;;;25.40
19948;BMP180;10135;50.702;7.276;2022-07-23T10:19:09;99811.00;;;25.40
19948;BMP180;10135;50.702;7.276;2022-07-23T10:21:10;99813.00;;;25.40
19948;BMP180;10135;50.702;7.276;2022-07-23T10:26:23;99822.00;;;25.50
19948;BMP180;10135;50.702;7.276;2022-07-23T10:28:46;99809.00;;;25.50
19948;BMP180;10135;50.702;7.276;2022-07-23T10:31:29;99799.00;;;25.60
19948;BMP180;10135;50.702;7.276;2022-07-23T10:34:07;99803.00;;;25.60
19948;BMP180;10135;50.702;7.276;2022-07-23T10:36:20;99805.00;;;25.60
19948;BMP180;10135;50.702;7.276;2022-07-23T10:38:30;99799.00;;;25.60
19948;BMP180;10135;50.702;7.276;2022-07-23T10:40:33;99799.00;;;25.70
19948;BMP180;10135;50.702;7.276;2022-07-23T10:42:35;99796.00;;;25.70
19948;BMP180;10135;50.702;7.276;2022-07-23T10:44:45;99798.00;;;25.70
19948;BMP180;10135;50.702;7.276;2022-07-23T10:47:00;99793.00;;;25.80
19948;BMP180;10135;50.702;7.276;2022-07-23T10:49:31;99799.00;;;25.80
19948;BMP180;10135;50.702;7.276;2022-07-23T10:51:32;99796.00;;;25.90
19948;BMP180;10135;50.702;7.276;2022-07-23T10:55:52;99797.00;;;26.00
19948;BMP180;10135;50.702;7.276;2022-07-23T10:57:53;99794.00;;;26.00
19948;BMP180;10135;50.702;7.276;2022-07-23T11:02:23;99801.00;;;26.10
19948;BMP180;10135;50.702;7.276;2022-07-23T11:04:53;99793.00;;;26.20
19948;BMP180;10135;50.702;7.276;2022-07-23T11:09:39;99798.00;;;26.30
19948;BMP180;10135;50.702;7.276;2022-07-23T11:11:40;99795.00;;;26.30
19948;BMP180;10135;50.702;7.276;2022-07-23T11:13:45;99794.00;;;26.30
19948;BMP180;10135;50.702;7.276;2022-07-23T11:18:01;99789.00;;;26.40
19948;BMP180;10135;50.702;7.276;2022-07-23T11:20:22;99793.00;;;26.40
19948;BMP180;10135;50.702;7.276;2022-07-23T11:22:40;99786.00;;;26.50
19948;BMP180;10135;50.702;7.276;2022-07-23T11:24:52;99783.00;;;26.50
19948;BMP180;10135;50.702;7.276;2022-07-23T11:26:58;99786.00;;;26.60
19948;BMP180;10135;50.702;7.276;2022-07-23T11:31:26;99784.00;;;26.70
19948;BMP180;10135;50.702;7.276;2022-07-23T11:33:27;99789.00;;;26.70
19948;BMP180;10135;50.702;7.276;2022-07-23T11:35:28;99791.00;;;26.70
19948;BMP180;10135;50.702;7.276;2022-07-23T11:37:38;99788.00;;;26.80
19948;BMP180;10135;50.702;7.276;2022-07-23T11:39:39;99790.00;;;26.80
19948;BMP180;10135;50.702;7.276;2022-07-23T11:41:46;99788.00;;;26.80
19948;BMP180;10135;50.702;7.276;2022-07-23T11:43:47;99784.00;;;26.90
19948;BMP180;10135;50.702;7.276;2022-07-23T11:45:56;99779.00;;;26.90
19948;BMP180;10135;50.702;7.276;2022-07-23T11:47:58;99780.00;;;26.90
19948;BMP180;10135;50.702;7.276;2022-07-23T11:50:01;99780.00;;;26.90
19948;BMP180;10135;50.702;7.276;2022-07-23T11:52:09;99780.00;;;27.00
19948;BMP180;10135;50.702;7.276;2022-07-23T11:54:10;99784.00;;;27.00
19948;BMP180;10135;50.702;7.276;2022-07-23T11:56:11;99785.00;;;27.00
19948;BMP180;10135;50.702;7.276;2022-07-23T11:58:12;99792.00;;;27.10
19948;BMP180;10135;50.702;7.276;2022-07-23T12:00:19;99786.00;;;27.10
19948;BMP180;10135;50.702;7.276;2022-07-23T12:02:21;99790.00;;;27.20
19948;BMP180;10135;50.702;7.276;2022-07-23T12:04:22;99792.00;;;27.20
19948;BMP180;10135;50.702;7.276;2022-07-23T12:06:23;99791.00;;;27.20
19948;BMP180;10135;50.702;7.276;2022-07-23T12:08:24;99788.00;;;27.30
19948;BMP180;10135;50.702;7.276;2022-07-23T12:10:30;99788.00;;;27.30
19948;BMP180;10135;50.702;7.276;2022-07-23T12:12:57;99785.00;;;27.30
19948;BMP180;10135;50.702;7.276;2022-07-23T12:14:58;99788.00;;;27.30
19948;BMP180;10135;50.702;7.276;2022-07-23T12:17:09;99786.00;;;27.30
19948;BMP180;10135;50.702;7.276;2022-07-23T12:19:10;99786.00;;;27.40
19948;BMP180;10135;50.702;7.276;2022-07-23T12:21:11;99782.00;;;27.40
19948;BMP180;10135;50.702;7.276;2022-07-23T12:23:15;99784.00;;;27.50
19948;BMP180;10135;50.702;7.276;2022-07-23T12:25:28;99781.00;;;27.50
19948;BMP180;10135;50.702;7.276;2022-07-23T12:27:30;99790.00;;;27.60
19948;BMP180;10135;50.702;7.276;2022-07-23T12:29:36;99785.00;;;27.60